Time;durP1;ratioP1;P1;durP2;ratioP2;P2;SDS_P1;SDS_P2;PMS_P1;PMS_P2;Temp;Humidity;BMP_temperature;BMP_pressure;BME280_temperature;BME280_humidity;BME280_pressure;Samples;Min_cycle;Max_cycle;Signal;HPM_P1;HPM_P2
2024/02/26 00:01:43;;;;;;;6.18;4.35;;;;;;;9.82;56.20;100052.94;4934394;28;100466;-88
2024/02/26 00:04:09;;;;;;;6.90;4.47;;;;;;;9.81;56.10;100050.34;4960424;28;96768;-88
2024/02/26 00:06:35;;;;;;;7.57;4.07;;;;;;;9.83;56.03;100046.84;4951234;28;97013;-87
2024/02/26 00:09:02;;;;;;;6.60;3.90;;;;;;;9.83;55.99;100048.59;4983988;28;97641;-87
2024/02/26 00:11:27;;;;;;;6.20;3.95;;;;;;;9.82;55.89;100054.66;4954141;28;101224;-88
2024/02/26 00:13:53;;;;;;;5.97;3.80;;;;;;;9.81;55.99;100050.34;4933535;28;96943;-88
2024/02/26 00:16:18;;;;;;;5.05;3.20;;;;;;;9.80;55.90;100051.19;4940360;28;96949;-88
2024/02/26 00:18:44;;;;;;;6.13;4.10;;;;;;;9.78;55.97;100052.91;4950448;28;100443;-88
2024/02/26 00:21:09;;;;;;;7.13;4.25;;;;;;;9.77;56.00;100058.97;4940805;28;100387;-87
2024/02/26 00:23:35;;;;;;;6.75;4.53;;;;;;;9.75;55.92;100059.00;4953812;28;96961;-87
2024/02/26 00:26:00;;;;;;;10.80;4.72;;;;;;;9.74;56.05;100057.25;4953211;28;96828;-87
2024/02/26 00:28:27;;;;;;;6.40;3.55;;;;;;;9.74;56.07;100056.41;4954211;28;98031;-86
2024/02/26 00:30:55;;;;;;;7.32;4.22;;;;;;;9.74;56.02;100057.25;4937452;28;99112;-88
2024/02/26 00:33:21;;;;;;;8.60;4.45;;;;;;;9.72;56.30;100052.03;4955165;28;97500;-88
2024/02/26 00:35:47;;;;;;;6.63;4.38;;;;;;;9.72;56.09;100054.63;4951799;28;96861;-88
2024/02/26 00:38:12;;;;;;;7.22;4.55;;;;;;;9.72;55.97;100051.16;4948255;28;100344;-88
2024/02/26 00:40:37;;;;;;;7.68;4.57;;;;;;;9.70;55.94;100055.50;4948679;28;99084;-88
2024/02/26 00:43:03;;;;;;;5.90;4.07;;;;;;;9.68;56.04;100060.72;4947517;28;97043;-87
2024/02/26 00:45:29;;;;;;;7.32;4.22;;;;;;;9.68;56.02;100067.66;4928959;28;96843;-88
2024/02/26 00:47:55;;;;;;;7.13;4.47;;;;;;;9.66;56.01;100057.22;4953329;28;99315;-88
2024/02/26 00:50:21;;;;;;;9.07;4.88;;;;;;;9.65;55.98;100052.88;4968506;28;97928;-88
2024/02/26 00:52:46;;;;;;;6.35;3.88;;;;;;;9.64;55.91;100058.97;4939639;28;96696;-88
2024/02/26 00:55:12;;;;;;;7.43;5.00;;;;;;;9.62;56.00;100050.25;4950428;28;96794;-88
2024/02/26 00:57:37;;;;;;;8.48;5.22;;;;;;;9.60;56.02;100057.19;4954331;28;100559;-88
2024/02/26 01:00:04;;;;;;;7.70;5.20;;;;;;;9.58;55.96;100058.06;4935074;28;99517;-88
2024/02/26 01:02:29;;;;;;;6.88;3.83;;;;;;;9.57;55.96;100064.97;4948369;28;96659;-88
2024/02/26 01:04:55;;;;;;;6.28;4.70;;;;;;;9.57;56.07;100061.53;4933439;28;96812;-88
2024/02/26 01:07:20;;;;;;;8.98;5.25;;;;;;;9.57;56.13;100059.78;4933888;28;100164;-88
2024/02/26 01:09:46;;;;;;;8.77;5.45;;;;;;;9.57;56.00;100061.53;4965282;28;100503;-88
2024/02/26 01:12:12;;;;;;;9.10;5.40;;;;;;;9.55;56.12;100058.91;4936394;28;96851;-88
2024/02/26 01:14:38;;;;;;;7.03;5.28;;;;;;;9.56;56.03;100054.59;4948360;28;96836;-88
2024/02/26 01:17:03;;;;;;;7.38;5.40;;;;;;;9.55;56.16;100056.31;4948803;28;97659;-87
2024/02/26 01:19:29;;;;;;;8.07;5.57;;;;;;;9.55;56.09;100055.44;4950808;28;100198;-88
2024/02/26 01:21:54;;;;;;;9.02;5.97;;;;;;;9.55;56.05;100056.31;4943611;28;96791;-91
2024/02/26 01:24:20;;;;;;;6.82;4.32;;;;;;;9.53;56.04;100056.28;4944447;28;97042;-88
2024/02/26 01:26:49;;;;;;;7.40;5.20;;;;;;;9.52;55.97;100045.91;4950208;28;100469;-86
2024/02/26 01:29:14;;;;;;;8.68;5.72;;;;;;;9.52;56.02;100046.75;4936304;28;100504;-88
2024/02/26 01:31:39;;;;;;;8.32;5.70;;;;;;;9.52;56.01;100051.97;4949347;28;96827;-88
2024/02/26 01:34:05;;;;;;;8.45;5.68;;;;;;;9.52;56.07;100040.69;4940393;28;96802;-88
2024/02/26 01:36:31;;;;;;;7.18;5.15;;;;;;;9.52;56.12;100046.75;4937898;28;99193;-88
2024/02/26 01:38:56;;;;;;;7.35;5.10;;;;;;;9.53;56.04;100047.63;4953958;28;100103;-88
2024/02/26 01:41:21;;;;;;;7.38;5.75;;;;;;;9.53;56.08;100048.47;4953867;28;96796;-88
2024/02/26 01:43:47;;;;;;;7.47;5.82;;;;;;;9.51;56.10;100055.41;4958094;28;96847;-89
2024/02/26 01:46:14;;;;;;;7.25;4.97;;;;;;;9.52;55.84;100048.50;4953346;28;98048;-88
2024/02/26 01:48:45;;;;;;;8.13;5.60;;;;;;;9.51;56.08;100041.53;4952998;28;100056;-90
2024/02/26 01:51:13;;;;;;;8.48;4.38;;;;;;;9.53;55.91;100048.47;4952576;28;96823;-88
2024/02/26 01:53:39;;;;;;;8.57;5.57;;;;;;;9.52;55.92;100053.72;4943206;28;96939;-88
2024/02/26 01:56:05;;;;;;;8.95;5.68;;;;;;;9.51;56.02;100052.81;4942466;28;100466;-87
2024/02/26 01:58:32;;;;;;;9.10;5.57;;;;;;;9.51;55.97;100044.16;4952805;28;100365;-89
2024/02/26 02:00:58;;;;;;;9.10;5.55;;;;;;;9.52;56.00;100056.31;4935112;28;96778;-88
2024/02/26 02:03:25;;;;;;;8.77;5.22;;;;;;;9.51;56.04;100054.56;4951705;28;96823;-88
2024/02/26 02:05:50;;;;;;;8.25;5.95;;;;;;;9.52;56.00;100062.38;4954018;28;100437;-88
2024/02/26 02:08:19;;;;;;;8.57;4.80;;;;;;;9.53;55.90;100068.44;4970899;28;97306;-89
2024/02/26 02:10:47;;;;;;;7.28;4.50;;;;;;;9.55;56.06;100066.72;4956925;28;96764;-88
2024/02/26 02:13:13;;;;;;;7.72;5.85;;;;;;;9.55;55.97;100069.31;4955511;28;96787;-88
2024/02/26 02:15:39;;;;;;;9.13;5.15;;;;;;;9.55;55.84;100068.47;4956430;28;100319;-88
2024/02/26 02:18:05;;;;;;;7.88;4.85;;;;;;;9.54;56.02;100083.22;4959762;28;100143;-87
2024/02/26 02:20:35;;;;;;;8.35;5.78;;;;;;;9.51;55.91;100076.25;4959566;28;97110;-88
2024/02/26 02:23:02;;;;;;;8.27;4.45;;;;;;;9.51;55.93;100070.19;4958867;28;96838;-88
2024/02/26 02:25:27;;;;;;;7.78;4.30;;;;;;;9.48;55.78;100078.84;4961065;28;100294;-89
2024/02/26 02:27:56;;;;;;;7.07;4.20;;;;;;;9.46;55.93;100088.38;4938373;28;100479;-88
2024/02/26 02:30:26;;;;;;;9.80;5.80;;;;;;;9.46;55.90;100084.91;4953431;28;96846;-87
2024/02/26 02:32:52;;;;;;;8.07;4.88;;;;;;;9.45;55.89;100076.22;4954246;28;96847;-88
2024/02/26 02:35:17;;;;;;;9.40;6.13;;;;;;;9.44;55.67;100079.69;4953992;28;99953;-89
2024/02/26 02:37:43;;;;;;;8.80;5.90;;;;;;;9.42;55.89;100085.75;4938017;28;100332;-88
2024/02/26 02:40:08;;;;;;;8.65;4.50;;;;;;;9.41;56.03;100090.09;4952719;28;96863;-87
2024/02/26 02:42:34;;;;;;;8.40;5.35;;;;;;;9.40;55.97;100098.75;4954829;28;96997;-88
2024/02/26 02:44:59;;;;;;;8.63;5.18;;;;;;;9.42;55.86;100098.78;4952670;28;98889;-87
2024/02/26 02:47:25;;;;;;;9.27;5.00;;;;;;;9.42;55.93;100090.97;4937870;28;100525;-88
2024/02/26 02:49:50;;;;;;;9.40;5.80;;;;;;;9.40;56.12;100109.19;4940545;28;96739;-87
2024/02/26 02:52:16;;;;;;;8.88;5.88;;;;;;;9.39;56.08;100112.63;4949508;28;96778;-88
2024/02/26 02:54:46;;;;;;;7.75;4.75;;;;;;;9.39;55.89;100114.38;4952376;28;99594;-88
2024/02/26 02:57:12;;;;;;;9.15;5.95;;;;;;;9.38;55.95;100118.72;4969722;28;97641;-88
2024/02/26 02:59:38;;;;;;;9.32;5.88;;;;;;;9.37;55.96;100116.09;4956852;28;96692;-88
2024/02/26 03:02:06;;;;;;;9.65;5.47;;;;;;;9.38;56.21;100120.44;4950016;28;96800;-88
2024/02/26 03:04:32;;;;;;;10.90;6.30;;;;;;;9.37;55.90;100123.91;4936890;28;100943;-88
2024/02/26 03:06:58;;;;;;;9.00;5.28;;;;;;;9.36;56.08;100130.84;4954462;28;100090;-88
2024/02/26 03:09:23;;;;;;;8.32;4.88;;;;;;;9.36;56.15;100135.16;4973484;28;96860;-88
2024/02/26 03:11:49;;;;;;;11.15;6.30;;;;;;;9.36;55.49;100143.88;4938591;28;96963;-88
2024/02/26 03:14:14;;;;;;;9.15;4.75;;;;;;;9.36;56.03;100153.38;4940221;28;99720;-88
2024/02/26 03:16:40;;;;;;;8.73;4.53;;;;;;;9.38;56.13;100149.09;4937603;28;99151;-87
2024/02/26 03:19:05;;;;;;;9.95;5.78;;;;;;;9.40;56.05;100158.63;4943209;28;96879;-88
2024/02/26 03:21:31;;;;;;;9.90;5.82;;;;;;;9.41;56.06;100155.19;4957470;28;97108;-88
2024/02/26 03:23:57;;;;;;;8.27;5.97;;;;;;;9.41;56.02;100159.50;4957238;28;100811;-88
2024/02/26 03:26:23;;;;;;;8.85;4.82;;;;;;;9.40;56.10;100149.97;4958488;28;98283;-88
2024/02/26 03:28:48;;;;;;;10.73;5.40;;;;;;;9.40;55.96;100152.56;4955649;28;96761;-88
2024/02/26 03:31:14;;;;;;;9.00;5.88;;;;;;;9.39;55.85;100163.81;4953258;28;96773;-87
2024/02/26 03:33:40;;;;;;;10.15;6.60;;;;;;;9.39;55.91;100154.28;4954610;28;97716;-87
2024/02/26 03:36:07;;;;;;;9.50;5.45;;;;;;;9.37;56.04;100156.00;4951196;28;100414;-88
2024/02/26 03:38:33;;;;;;;10.95;6.45;;;;;;;9.37;55.81;100162.94;4950961;28;96852;-88
2024/02/26 03:40:58;;;;;;;9.60;6.38;;;;;;;9.34;55.92;100164.66;4936951;28;96911;-88
2024/02/26 03:43:24;;;;;;;10.25;7.18;;;;;;;9.34;55.95;100162.06;4936194;28;100704;-87
2024/02/26 03:45:49;;;;;;;11.30;6.65;;;;;;;9.33;55.97;100165.53;4940441;28;100424;-88
2024/02/26 03:48:15;;;;;;;10.68;6.82;;;;;;;9.32;56.08;100155.09;4954545;28;96946;-90
2024/02/26 03:50:40;;;;;;;10.68;6.70;;;;;;;9.32;56.04;100170.72;4937399;28;96869;-87
2024/02/26 03:53:06;;;;;;;10.93;6.38;;;;;;;9.31;55.89;100168.97;4935722;28;99788;-88
2024/02/26 03:55:31;;;;;;;11.30;7.00;;;;;;;9.30;55.74;100172.44;4955662;28;97581;-88
2024/02/26 03:57:56;;;;;;;11.57;6.10;;;;;;;9.28;55.85;100175.03;4936621;28;97563;-88
2024/02/26 04:00:22;;;;;;;10.48;6.97;;;;;;;9.29;55.97;100173.31;4969379;28;97045;-88
2024/02/26 04:02:48;;;;;;;11.40;6.70;;;;;;;9.29;56.05;100168.09;4951628;28;100468;-88
2024/02/26 04:05:14;;;;;;;11.30;7.00;;;;;;;9.29;56.07;100175.91;4935649;28;99855;-87
2024/02/26 04:07:40;;;;;;;10.52;5.30;;;;;;;9.26;55.85;100168.94;4953081;28;96964;-87
2024/02/26 04:10:15;;;;;;;11.77;7.60;;;;;;;9.26;55.84;100168.06;4936153;28;98486;-90
2024/02/26 04:12:44;;;;;;;12.98;8.27;;;;;;;9.26;55.94;100170.69;4936431;28;99121;-89
2024/02/26 04:15:10;;;;;;;12.63;6.95;;;;;;;9.27;55.92;100185.41;4940669;28;100423;-88
2024/02/26 04:17:37;;;;;;;12.40;6.95;;;;;;;9.26;55.87;100178.50;4985408;28;96786;-88
2024/02/26 04:20:07;;;;;;;11.38;7.40;;;;;;;9.24;55.89;100191.47;4961647;28;96732;-88
2024/02/26 04:22:33;;;;;;;11.75;7.38;;;;;;;9.26;56.10;100183.69;4945366;28;101001;-88
2024/02/26 04:24:58;;;;;;;11.70;6.00;;;;;;;9.25;55.85;100188.03;4955921;28;100251;-89
2024/02/26 04:27:24;;;;;;;12.18;7.57;;;;;;;9.26;56.00;100191.50;4954869;28;96801;-89
2024/02/26 04:29:49;;;;;;;12.63;6.03;;;;;;;9.24;55.85;100186.28;4941928;28;96828;-88
2024/02/26 04:32:15;;;;;;;11.48;7.15;;;;;;;9.24;55.79;100190.63;4958928;28;97623;-88
2024/02/26 04:34:41;;;;;;;11.25;6.82;;;;;;;9.23;55.81;100187.13;4950859;28;99232;-88
2024/02/26 04:37:07;;;;;;;11.93;7.57;;;;;;;9.25;55.95;100195.84;4936996;28;96770;-88
2024/02/26 04:39:32;;;;;;;11.38;6.68;;;;;;;9.25;55.93;100193.25;4955204;28;96905;-88
2024/02/26 04:41:58;;;;;;;12.68;7.60;;;;;;;9.24;56.02;100191.47;4962208;28;100364;-88
2024/02/26 04:44:23;;;;;;;11.93;7.20;;;;;;;9.24;55.69;100190.63;4953754;28;100263;-89
2024/02/26 04:46:49;;;;;;;12.45;6.20;;;;;;;9.23;55.81;100192.31;4940237;28;96795;-89
2024/02/26 04:49:14;;;;;;;15.20;8.50;;;;;;;9.21;55.83;100188.00;4954784;28;96840;-89
2024/02/26 04:51:40;;;;;;;11.88;6.93;;;;;;;9.22;55.78;100194.94;4938976;28;100734;-88
2024/02/26 04:54:05;;;;;;;14.52;7.75;;;;;;;9.23;55.94;100201.88;4953994;28;99854;-88
2024/02/26 04:56:31;;;;;;;15.23;8.52;;;;;;;9.21;55.84;100196.66;4955759;28;96785;-88
2024/02/26 04:58:56;;;;;;;16.13;8.25;;;;;;;9.23;56.05;100201.88;4969882;28;96907;-88
2024/02/26 05:01:22;;;;;;;13.55;7.90;;;;;;;9.23;56.16;100210.53;4938992;28;100410;-88
2024/02/26 05:03:47;;;;;;;12.32;5.88;;;;;;;9.22;55.96;100206.22;4946118;28;97412;-88
2024/02/26 05:06:13;;;;;;;13.18;6.97;;;;;;;9.21;56.03;100209.66;4957476;28;96667;-89
2024/02/26 05:08:38;;;;;;;16.17;8.20;;;;;;;9.22;55.97;100220.97;4950632;28;96930;-87
2024/02/26 05:11:04;;;;;;;14.85;8.02;;;;;;;9.21;56.25;100225.28;4950828;28;100244;-89
2024/02/26 05:13:30;;;;;;;14.57;8.15;;;;;;;9.20;56.16;100220.06;4935031;28;100635;-88
2024/02/26 05:15:55;;;;;;;14.80;8.55;;;;;;;9.21;56.11;100220.06;4969878;28;96781;-88
2024/02/26 05:18:22;;;;;;;18.95;8.85;;;;;;;9.21;56.20;100224.41;4953585;28;96834;-90
2024/02/26 05:20:47;;;;;;;14.30;8.25;;;;;;;9.20;56.13;100235.66;4953578;28;100416;-92
2024/02/26 05:23:13;;;;;;;14.60;8.57;;;;;;;9.20;56.32;100225.25;4955341;28;99290;-89
2024/02/26 05:25:38;;;;;;;13.52;6.97;;;;;;;9.19;55.97;100232.22;4972278;28;96710;-89
2024/02/26 05:28:04;;;;;;;17.75;9.82;;;;;;;9.19;56.47;100221.81;4955199;28;96854;-89
2024/02/26 05:30:29;;;;;;;14.40;8.05;;;;;;;9.17;56.29;100220.06;4953233;28;100124;-88
2024/02/26 05:32:55;;;;;;;14.32;7.45;;;;;;;9.17;56.43;100222.66;4964467;28;100285;-89
2024/02/26 05:35:20;;;;;;;15.20;8.93;;;;;;;9.16;56.27;100234.78;4951036;28;96715;-90
2024/02/26 05:37:46;;;;;;;16.65;9.15;;;;;;;9.16;56.35;100242.59;4970966;28;96756;-90
2024/02/26 05:40:15;;;;;;;15.48;9.25;;;;;;;9.14;56.42;100245.19;4947942;28;100505;-89
2024/02/26 05:42:40;;;;;;;15.68;9.25;;;;;;;9.14;56.51;100233.91;4953911;28;100195;-88
2024/02/26 05:45:06;;;;;;;15.57;8.82;;;;;;;9.14;56.51;100234.78;4960997;28;96852;-89
2024/02/26 05:47:35;;;;;;;14.30;8.95;;;;;;;9.14;56.63;100239.09;4955267;28;96881;-89
2024/02/26 05:50:02;;;;;;;12.98;7.05;;;;;;;9.12;56.51;100246.88;4938218;28;99165;-89
2024/02/26 05:52:29;;;;;;;17.10;9.18;;;;;;;9.14;56.67;100249.50;4969651;28;99116;-89
2024/02/26 05:54:54;;;;;;;17.88;9.93;;;;;;;9.14;56.62;100240.00;4970195;28;96767;-91
2024/02/26 05:57:20;;;;;;;16.52;9.20;;;;;;;9.13;56.56;100256.44;4954162;28;97088;-88
2024/02/26 05:59:46;;;;;;;17.17;8.30;;;;;;;9.13;56.61;100253.84;4954683;28;98652;-89
2024/02/26 06:02:11;;;;;;;16.33;9.13;;;;;;;9.11;56.60;100263.38;4953538;28;97712;-87
2024/02/26 06:04:37;;;;;;;19.20;9.90;;;;;;;9.09;56.64;100265.09;4954601;28;96796;-88
2024/02/26 06:07:02;;;;;;;16.85;8.60;;;;;;;9.09;56.66;100269.41;4970665;28;96832;-88
2024/02/26 06:09:28;;;;;;;17.58;9.73;;;;;;;9.08;56.65;100265.94;4953762;28;98655;-91
2024/02/26 06:11:53;;;;;;;17.58;9.07;;;;;;;9.07;56.73;100259.00;4956864;28;96863;-89
2024/02/26 06:14:20;;;;;;;17.02;9.25;;;;;;;9.09;56.78;100269.41;4937261;28;96641;-87
2024/02/26 06:16:46;;;;;;;17.77;8.63;;;;;;;9.11;56.64;100273.78;4952220;28;96939;-88
2024/02/26 06:19:13;;;;;;;18.92;9.25;;;;;;;9.09;56.74;100275.50;4950944;28;99893;-88
2024/02/26 06:21:39;;;;;;;18.05;9.02;;;;;;;9.10;56.87;100287.63;4951473;28;101170;-87
2024/02/26 06:24:05;;;;;;;19.17;9.75;;;;;;;9.10;56.95;100286.78;4939701;28;96770;-88
2024/02/26 06:26:30;;;;;;;17.00;8.52;;;;;;;9.09;56.78;100288.50;4950325;28;96901;-90
2024/02/26 06:28:56;;;;;;;19.20;9.15;;;;;;;9.09;56.90;100292.81;4935039;28;100428;-88
2024/02/26 06:31:22;;;;;;;18.42;8.98;;;;;;;9.08;56.88;100289.34;4966955;28;99726;-87
2024/02/26 06:33:49;;;;;;;18.20;9.40;;;;;;;9.08;57.12;100291.97;4938161;28;96898;-88
2024/02/26 06:36:15;;;;;;;19.90;10.38;;;;;;;9.08;57.05;100304.09;4952462;28;97074;-88
2024/02/26 06:38:44;;;;;;;19.23;9.90;;;;;;;9.08;56.88;100304.09;4952626;28;100295;-88
2024/02/26 06:41:11;;;;;;;20.30;10.68;;;;;;;9.10;57.06;100302.38;4949293;28;100393;-89
2024/02/26 06:43:39;;;;;;;20.60;10.25;;;;;;;9.10;56.97;100307.59;4954046;28;96752;-89
2024/02/26 06:46:06;;;;;;;22.58;10.35;;;;;;;9.10;57.20;100312.78;4955738;28;96782;-88
2024/02/26 06:48:31;;;;;;;23.30;10.75;;;;;;;9.08;57.13;100320.56;4970007;28;101350;-90
2024/02/26 06:50:56;;;;;;;22.65;11.02;;;;;;;9.09;57.31;100324.03;4954325;28;100460;-90
2024/02/26 06:53:22;;;;;;;23.30;11.18;;;;;;;9.11;57.26;100333.63;4956202;28;97101;-88
2024/02/26 06:55:50;;;;;;;26.75;12.05;;;;;;;9.11;57.27;100328.41;4939931;28;96832;-90
2024/02/26 06:58:15;;;;;;;28.60;13.55;;;;;;;9.11;57.33;100328.41;4960657;28;100324;-87
2024/02/26 07:00:45;;;;;;;27.48;12.65;;;;;;;9.09;57.30;100330.13;4960015;28;99963;-88
2024/02/26 07:03:13;;;;;;;25.83;11.48;;;;;;;9.08;57.39;100324.91;4953253;28;96778;-87
2024/02/26 07:05:39;;;;;;;28.80;13.32;;;;;;;9.09;57.54;100335.34;4956896;28;96724;-88
2024/02/26 07:08:05;;;;;;;25.55;11.55;;;;;;;9.09;57.52;100337.06;4954036;28;100396;-88
2024/02/26 07:10:30;;;;;;;26.70;10.90;;;;;;;9.10;57.35;100344.00;4948916;28;99334;-89
2024/02/26 07:12:55;;;;;;;28.85;12.90;;;;;;;9.09;57.27;100350.06;4976703;28;96732;-88
2024/02/26 07:15:21;;;;;;;31.48;13.48;;;;;;;9.09;57.40;100352.66;4974592;28;96743;-89
2024/02/26 07:17:49;;;;;;;34.72;15.00;;;;;;;9.07;57.66;100357.88;4947469;28;100250;-90
2024/02/26 07:20:15;;;;;;;30.88;13.35;;;;;;;9.05;57.71;100349.16;4940974;28;100230;-89
2024/02/26 07:22:42;;;;;;;35.60;16.20;;;;;;;9.04;57.82;100367.38;4957983;28;96692;-89
2024/02/26 07:25:08;;;;;;;34.05;14.15;;;;;;;9.04;57.78;100367.38;4953494;28;96887;-89
2024/02/26 07:27:34;;;;;;;30.55;13.00;;;;;;;9.01;57.79;100360.38;4942094;28;98941;-88
2024/02/26 07:29:59;;;;;;;35.15;15.48;;;;;;;8.98;57.79;100346.47;4971718;28;99745;-90
2024/02/26 07:32:25;;;;;;;38.33;16.40;;;;;;;8.98;57.98;100365.53;4956950;28;96850;-88
2024/02/26 07:34:50;;;;;;;34.72;17.00;;;;;;;8.96;58.02;100367.25;4937992;28;96790;-92
2024/02/26 07:37:16;;;;;;;37.85;18.15;;;;;;;8.96;57.91;100368.13;4940568;28;98718;-90
2024/02/26 07:39:42;;;;;;;35.20;16.77;;;;;;;8.96;58.13;100375.06;4941608;28;98716;-90
2024/02/26 07:42:08;;;;;;;35.20;16.42;;;;;;;8.96;58.26;100381.13;4957292;28;96670;-91
2024/02/26 07:44:36;;;;;;;36.20;15.88;;;;;;;8.98;58.04;100383.75;4958101;28;96595;-91
2024/02/26 07:47:02;;;;;;;38.72;17.85;;;;;;;8.99;58.34;100382.06;4957184;28;100324;-89
2024/02/26 07:49:28;;;;;;;37.75;16.67;;;;;;;9.01;58.34;100388.13;4976855;28;100425;-89
2024/02/26 07:51:56;;;;;;;37.92;16.58;;;;;;;9.01;58.35;100385.53;4956409;28;96793;-90
2024/02/26 07:54:24;;;;;;;33.25;14.27;;;;;;;9.01;58.30;100396.81;4941166;28;96692;-91
2024/02/26 07:56:50;;;;;;;36.13;15.65;;;;;;;9.02;58.26;100405.47;4942462;28;98661;-90
2024/02/26 07:59:15;;;;;;;30.20;14.68;;;;;;;9.01;58.49;100407.22;4941057;28;100188;-90
2024/02/26 08:01:48;;;;;;;35.88;16.35;;;;;;;9.02;58.52;100406.38;4941498;28;96668;-88
2024/02/26 08:04:14;;;;;;;33.55;16.88;;;;;;;9.04;58.51;100420.28;4939897;28;96808;-93
2024/02/26 08:06:39;;;;;;;34.72;15.80;;;;;;;9.04;58.35;100422.00;4973515;28;96783;-89
2024/02/26 08:09:05;;;;;;;27.70;13.52;;;;;;;9.05;58.79;100426.34;4940443;28;99271;-92
2024/02/26 08:11:38;;;;;;;31.98;15.95;;;;;;;9.05;58.75;100428.94;4957786;28;96665;-90
2024/02/26 08:14:10;;;;;;;31.63;16.30;;;;;;;9.03;58.70;100428.06;4959017;28;96687;-94
2024/02/26 08:16:56;;;;;;;25.30;13.43;;;;;;;9.02;58.62;100442.78;4957823;28;101254;-91
2024/02/26 08:19:37;;;;;;;26.15;12.10;;;;;;;9.01;58.78;100440.16;4958697;28;100831;-91
2024/02/26 08:22:10;;;;;;;24.13;12.73;;;;;;;9.00;58.88;100438.41;4957272;28;96815;-90
2024/02/26 08:24:44;;;;;;;;;;;;;;;8.96;58.75;100433.16;4958752;28;96675;-91
2024/02/26 08:27:18;;;;;;;26.27;13.80;;;;;;;8.95;58.43;100444.44;4957267;28;98727;-93
2024/02/26 08:29:47;;;;;;;21.98;10.50;;;;;;;8.91;58.70;100421.84;4953799;28;100245;-89
2024/02/26 08:32:18;;;;;;;19.98;10.68;;;;;;;8.89;58.97;100449.53;4956936;28;96794;-92
2024/02/26 08:34:54;;;;;;;;;;;;;;;;;;;;;
2024/02/26 08:37:19;;;;;;;;;;;;;;;8.88;58.90;100450.41;4957720;28;100063;-90
2024/02/26 08:39:45;;;;;;;20.20;10.70;;;;;;;8.91;59.06;100455.66;4958139;28;100092;-89
2024/02/26 08:42:24;;;;;;;;;;;;;;;;;;;;;
2024/02/26 08:44:54;;;;;;;17.10;8.63;;;;;;;8.93;59.28;100466.06;4957192;28;96818;-92
2024/02/26 08:47:20;;;;;;;16.83;9.13;;;;;;;8.95;59.21;100453.97;4954610;28;99037;-89
2024/02/26 08:49:45;;;;;;;17.05;8.48;;;;;;;8.95;59.19;100466.97;4939104;28;99150;-89
2024/02/26 08:52:14;;;;;;;15.25;7.20;;;;;;;8.98;59.05;100473.94;4956451;28;96693;-94
2024/02/26 08:54:40;;;;;;;15.80;8.75;;;;;;;8.99;59.09;100476.56;4955324;28;96962;-89
2024/02/26 08:57:06;;;;;;;17.77;8.27;;;;;;;9.02;59.04;100488.72;4944137;28;100082;-89
2024/02/26 08:59:31;;;;;;;17.58;9.80;;;;;;;9.04;59.04;100485.31;4935577;28;98845;-90
2024/02/26 09:01:57;;;;;;;17.42;9.02;;;;;;;9.05;59.06;100481.84;4973841;28;96662;-90
2024/02/26 09:04:22;;;;;;;15.88;8.30;;;;;;;9.08;58.93;100488.81;4956703;28;96647;-89
2024/02/26 09:06:48;;;;;;;14.52;8.35;;;;;;;9.07;58.81;100492.25;4939222;28;99243;-89
2024/02/26 09:09:14;;;;;;;18.60;9.98;;;;;;;9.06;58.88;100485.34;4956526;28;99252;-93
2024/02/26 09:11:40;;;;;;;17.00;8.32;;;;;;;9.04;58.83;100492.25;4959026;28;96575;-91
2024/02/26 09:14:08;;;;;;;14.82;7.18;;;;;;;9.03;58.81;100487.88;4957280;28;96899;-91
2024/02/26 09:16:34;;;;;;;14.77;7.63;;;;;;;9.02;58.90;100500.03;4956145;28;98709;-92
2024/02/26 09:19:00;;;;;;;15.38;8.35;;;;;;;9.02;58.69;100504.34;4956124;28;99793;-91
2024/02/26 09:21:26;;;;;;;15.45;8.07;;;;;;;9.01;59.05;100503.47;4957317;28;96566;-91
2024/02/26 09:23:52;;;;;;;13.25;7.47;;;;;;;9.02;59.02;100518.25;4956209;28;96844;-90
2024/02/26 09:26:18;;;;;;;12.15;5.75;;;;;;;9.01;58.86;100513.88;4954903;28;99506;-92
2024/02/26 09:28:44;;;;;;;14.02;6.95;;;;;;;9.02;58.92;100512.13;4939931;28;99973;-91
2024/02/26 09:31:10;;;;;;;12.30;6.57;;;;;;;9.00;58.88;100511.25;4957446;28;96569;-91
2024/02/26 09:33:36;;;;;;;14.32;8.65;;;;;;;9.00;59.18;100508.66;4956366;28;96864;-92
2024/02/26 09:45:27;;;;;;;14.95;6.70;;;;;;;8.88;59.13;100531.03;4955350;28;96720;-91
2024/02/26 09:47:55;;;;;;;11.55;6.30;;;;;;;8.87;59.17;100531.88;4941196;28;96814;-91
2024/02/26 09:50:22;;;;;;;13.85;6.95;;;;;;;8.87;59.29;100547.50;4956747;28;100748;-91
2024/02/26 09:52:54;;;;;;;12.85;6.70;;;;;;;8.87;59.34;100544.03;4972760;28;100624;-90
2024/02/26 09:55:19;;;;;;;13.20;7.88;;;;;;;8.90;59.51;100555.34;4957255;28;96551;-91
2024/02/26 09:57:49;;;;;;;13.23;7.38;;;;;;;8.91;59.43;100548.41;4957940;28;96997;-92
2024/02/26 10:00:21;;;;;;;14.02;7.65;;;;;;;8.94;59.58;100557.13;4956878;28;98393;-91
2024/02/26 10:02:56;;;;;;;13.90;7.00;;;;;;;8.93;59.60;100555.41;4957761;28;100432;-93
2024/02/26 10:05:23;;;;;;;12.15;6.45;;;;;;;8.96;59.51;100564.97;4957823;28;97148;-90
2024/02/26 10:07:52;;;;;;;16.42;7.72;;;;;;;8.98;59.61;100565.00;4956269;28;96991;-92
2024/02/26 10:10:19;;;;;;;10.75;5.22;;;;;;;8.96;59.67;100572.78;4957024;28;98360;-90
2024/02/26 10:12:44;;;;;;;12.57;5.85;;;;;;;8.96;59.58;100578.84;4956227;28;100027;-89
2024/02/26 10:15:10;;;;;;;14.25;7.15;;;;;;;8.94;59.47;100572.75;4957255;28;96523;-91
2024/02/26 10:17:37;;;;;;;13.15;5.65;;;;;;;8.93;59.72;100576.22;4957122;28;96705;-91
2024/02/26 10:20:15;;;;;;;13.30;7.45;;;;;;;8.94;59.85;100579.69;4940277;28;98579;-91
2024/02/26 10:22:45;;;;;;;12.45;6.97;;;;;;;8.92;59.86;100579.66;4958861;28;99720;-91
2024/02/26 10:25:11;;;;;;;12.80;6.50;;;;;;;8.94;60.05;100590.09;4958149;28;96605;-91
2024/02/26 10:27:36;;;;;;;14.07;7.25;;;;;;;8.96;60.14;100596.19;4960661;28;97018;-93
2024/02/26 10:30:06;;;;;;;13.15;7.05;;;;;;;8.96;60.20;100593.56;4976397;28;99398;-95
2024/02/26 10:36:26;;;;;;;13.38;5.80;;;;;;;8.97;60.21;100608.34;4918448;28;96657;-92
2024/02/26 10:38:59;;;;;;;14.27;7.88;;;;;;;8.99;60.17;100616.19;4920570;28;97264;-93
2024/02/26 10:41:24;;;;;;;9.25;5.45;;;;;;;9.01;60.20;100611.88;4902245;28;100571;-87
2024/02/26 10:43:52;;;;;;;14.23;6.30;;;;;;;9.02;60.34;100622.31;4907120;28;100194;-88
2024/02/26 10:46:18;;;;;;;12.18;6.90;;;;;;;9.05;60.47;100624.94;4909890;28;96699;-87
2024/02/26 10:48:51;;;;;;;12.25;6.35;;;;;;;9.11;60.56;100624.19;4915810;28;96943;-86
2024/02/26 10:51:24;;;;;;;14.40;7.85;;;;;;;9.15;60.24;100631.16;4924087;28;99897;-88
2024/02/26 10:53:56;;;;;;;14.10;7.25;;;;;;;9.17;60.11;100636.41;4926920;28;100492;-89
2024/02/26 10:56:25;;;;;;;12.52;6.80;;;;;;;9.18;60.13;100645.94;4913723;28;96879;-89
2024/02/26 10:58:52;;;;;;;13.90;7.00;;;;;;;9.19;60.26;100645.97;4923203;28;96980;-89
2024/02/26 11:01:20;;;;;;;15.73;7.80;;;;;;;9.19;59.85;100648.56;4895680;28;100104;-88
2024/02/26 11:03:45;;;;;;;13.13;6.35;;;;;;;9.19;60.22;100655.50;4916083;28;98886;-87
2024/02/26 11:06:16;;;;;;;8.95;4.97;;;;;;;9.20;60.43;100655.53;4896079;28;96843;-87
2024/02/26 11:08:44;;;;;;;11.65;5.57;;;;;;;9.23;60.50;100659.91;4908468;28;96946;-85
2024/02/26 11:11:15;;;;;;;11.63;6.63;;;;;;;9.26;60.14;100662.56;4914942;28;97681;-87
2024/02/26 11:13:44;;;;;;;11.20;6.15;;;;;;;9.27;60.30;100669.50;4895590;28;98943;-88
2024/02/26 11:16:12;;;;;;;13.77;5.82;;;;;;;9.29;60.56;100666.06;4930615;28;96802;-89
2024/02/26 11:18:48;;;;;;;12.18;6.80;;;;;;;9.32;60.58;100673.03;4897397;28;97104;-88
2024/02/26 11:21:19;;;;;;;12.23;6.75;;;;;;;9.33;60.29;100665.25;4906186;28;99974;-90
2024/02/26 11:23:48;;;;;;;12.52;6.72;;;;;;;9.34;60.18;100671.38;4899047;28;99582;-88
2024/02/26 11:26:16;;;;;;;12.25;7.50;;;;;;;9.34;60.18;100671.38;4900616;28;96965;-89
2024/02/26 11:28:51;;;;;;;12.68;6.80;;;;;;;9.34;60.21;100682.63;4913219;28;96864;-89
2024/02/26 11:31:26;;;;;;;15.40;7.40;;;;;;;9.34;60.66;100681.78;4931422;28;100261;-90
2024/02/26 11:33:56;;;;;;;12.35;6.55;;;;;;;9.36;60.28;100681.78;4919684;28;97724;-90
2024/02/26 11:36:29;;;;;;;16.38;6.85;;;;;;;9.33;60.70;100683.47;4952833;28;96892;-90
2024/02/26 11:38:55;;;;;;;14.57;7.05;;;;;;;9.36;60.39;100677.47;4970877;28;96829;-90